EBAW

Antwerp International (Deurne) Airport

Antwerp, Belgium
TAF EBAW 201110Z 2012/2021 03004KT 9999 FEW020
Issued Valid From Valid To
Oct-20 @ 11:10 UTC
(2 hours ago)
Oct-20 @ 12:00 UTC
(53 minutes ago)
Oct-20 @ 21:00 UTC
(in 8 hours)
Oct-20 @ 12:00 to Oct-20 @ 21:00
TAF EBAW 201110Z 2012/2021 03004KT 9999 FEW020
Wind Visibility Clouds
30° at 4 knots 10,000+ meters
  • Few at 2,000' AGL
TAF EBAW 201110Z 2012/2021 03004KT 9999 FEW020
Issued Oct-20 @ 11:10 UTC
(2 hours ago)
Valid From Oct-20 @ 12:00 UTC
(53 minutes ago)
Valid To Oct-20 @ 21:00 UTC
(in 8 hours)
Oct-20 @ 12:00 - Oct-20 @ 21:00
Wind Visibility
30° at 4 knots 10,000+ meters
Clouds
  • Few at 2,000' AGL